Time;durP1;ratioP1;P1;durP2;ratioP2;P2;SDS_P1;SDS_P2;PMS_P1;PMS_P2;Temp;Humidity;BMP_temperature;BMP_pressure;BME280_temperature;BME280_humidity;BME280_pressure;Samples;Min_cycle;Max_cycle;Signal;HPM_P1;HPM_P2
2024/04/17 00:00:16;;;;;;;4.78;3.20;;;;;;;5.52;100.00;100630.44;5223473;27;20003;-74
2024/04/17 00:02:42;;;;;;;4.28;3.30;;;;;;;5.52;100.00;100635.75;5199262;27;20048;-73
2024/04/17 00:05:08;;;;;;;4.72;2.80;;;;;;;5.51;100.00;100634.13;5219609;27;20126;-74
2024/04/17 00:07:33;;;;;;;6.70;3.38;;;;;;;5.47;100.00;100631.13;5216109;27;20487;-75
2024/04/17 00:09:59;;;;;;;5.45;3.22;;;;;;;5.48;100.00;100631.94;5178229;27;20003;-73
2024/04/17 00:12:25;;;;;;;5.53;3.22;;;;;;;5.48;100.00;100637.25;5224640;27;20019;-76
2024/04/17 00:14:50;;;;;;;4.75;2.72;;;;;;;5.46;100.00;100642.00;5168382;27;20886;-74
2024/04/17 00:17:16;;;;;;;4.78;2.80;;;;;;;5.45;100.00;100640.41;5179333;27;20873;-75
2024/04/17 00:19:42;;;;;;;4.60;3.22;;;;;;;5.42;100.00;100636.38;5222365;27;20499;-73
2024/04/17 00:22:07;;;;;;;3.65;2.92;;;;;;;5.39;100.00;100638.69;5203181;27;20537;-75
2024/04/17 00:24:33;;;;;;;6.57;3.45;;;;;;;5.37;100.00;100646.91;5246081;27;20003;-74
2024/04/17 00:26:59;;;;;;;5.55;3.30;;;;;;;5.36;100.00;100641.84;5222438;27;20063;-75
2024/04/17 00:29:25;;;;;;;4.78;3.28;;;;;;;5.31;100.00;100639.88;5204056;27;20019;-74
2024/04/17 00:31:51;;;;;;;4.90;3.33;;;;;;;5.32;100.00;100646.00;5197061;27;20009;-74
2024/04/17 00:34:16;;;;;;;5.10;3.08;;;;;;;5.30;100.00;100638.28;5245946;27;20010;-73
2024/04/17 00:36:42;;;;;;;6.47;4.20;;;;;;;5.30;100.00;100643.59;5224814;27;20025;-72
2024/04/17 00:39:07;;;;;;;4.50;3.10;;;;;;;5.28;100.00;100639.53;5195820;27;20020;-74
2024/04/17 00:41:35;;;;;;;5.03;3.53;;;;;;;5.25;100.00;100640.03;5204185;27;20205;-73
2024/04/17 00:44:02;;;;;;;5.90;3.55;;;;;;;5.25;100.00;100640.03;5211380;27;20504;-74
2024/04/17 00:46:30;;;;;;;4.28;3.03;;;;;;;5.24;100.00;100633.09;5257472;27;20509;-74
2024/04/17 00:48:55;;;;;;;5.25;3.63;;;;;;;5.25;100.00;100630.19;5237563;27;20003;-74
2024/04/17 00:51:21;;;;;;;5.10;3.30;;;;;;;5.26;100.00;100642.44;5207651;27;20053;-73
2024/04/17 00:53:47;;;;;;;5.72;3.58;;;;;;;5.25;100.00;100640.03;5180491;27;20010;-73
2024/04/17 00:56:13;;;;;;;5.28;3.67;;;;;;;5.23;100.00;100645.56;5261889;27;20063;-72
2024/04/17 00:58:39;;;;;;;3.85;3.17;;;;;;;5.22;100.00;100641.31;5232912;27;20385;-72
2024/04/17 01:01:05;;;;;;;5.75;3.30;;;;;;;5.23;100.00;100642.13;5263104;26;20014;-73
2024/04/17 01:03:30;;;;;;;5.95;3.38;;;;;;;5.23;100.00;100642.13;5196418;27;20023;-73
2024/04/17 01:05:56;;;;;;;5.85;2.72;;;;;;;5.24;100.00;100641.06;5204486;27;19998;-74
2024/04/17 01:08:22;;;;;;;5.68;3.80;;;;;;;5.25;100.00;100642.66;5251216;27;20030;-73
2024/04/17 01:11:01;;;;;;;5.03;3.80;;;;;;;5.25;100.00;100640.03;5240281;27;20018;-73
2024/04/17 01:13:28;;;;;;;6.43;3.58;;;;;;;5.25;100.00;100638.16;5236027;27;20144;-74
2024/04/17 01:15:55;;;;;;;4.43;3.10;;;;;;;5.26;100.00;100625.69;5237667;27;20020;-72
2024/04/17 01:18:22;;;;;;;6.35;3.42;;;;;;;5.28;100.00;100629.72;5231259;27;20058;-72
2024/04/17 01:20:48;;;;;;;5.68;3.72;;;;;;;5.29;100.00;100627.88;5206419;27;20007;-74
2024/04/17 01:23:14;;;;;;;8.13;3.58;;;;;;;5.30;100.00;100625.00;5225590;27;20018;-72
2024/04/17 01:25:41;;;;;;;5.05;3.80;;;;;;;5.30;100.00;100626.84;5199403;27;20011;-72
2024/04/17 01:28:07;;;;;;;5.15;3.42;;;;;;;5.32;100.00;100628.22;5192308;27;20003;-74
2024/04/17 01:30:33;;;;;;;7.32;3.00;;;;;;;5.29;100.00;100625.22;5228543;27;20022;-72
2024/04/17 01:32:59;;;;;;;7.28;3.78;;;;;;;5.30;100.00;100627.66;5214459;27;20010;-73
2024/04/17 01:35:26;;;;;;;5.63;3.72;;;;;;;5.28;100.00;100627.06;5239919;27;20013;-73
2024/04/17 01:37:52;;;;;;;6.20;3.75;;;;;;;5.26;100.00;100631.00;5226660;27;20469;-73
2024/04/17 01:40:17;;;;;;;6.47;3.33;;;;;;;5.23;100.00;100634.16;5240916;27;20010;-72
2024/04/17 01:42:43;;;;;;;8.85;4.22;;;;;;;5.20;100.00;100627.44;5227971;27;20033;-72
2024/04/17 01:45:09;;;;;;;5.18;3.53;;;;;;;5.15;100.00;100630.81;5174271;27;20029;-71
2024/04/17 01:47:35;;;;;;;5.88;3.65;;;;;;;5.14;100.00;100623.88;5270139;27;20025;-72
2024/04/17 01:50:02;;;;;;;6.30;3.70;;;;;;;5.11;100.00;100634.19;5237057;27;20010;-72
2024/04/17 01:52:27;;;;;;;4.68;3.88;;;;;;;5.08;100.00;100639.94;5234933;27;20022;-72
2024/04/17 01:54:53;;;;;;;7.72;3.50;;;;;;;5.03;100.00;100638.00;5234807;26;20009;-72
2024/04/17 01:57:20;;;;;;;5.35;3.60;;;;;;;5.02;100.00;100636.41;5240741;27;20015;-74
2024/04/17 01:59:45;;;;;;;5.10;3.50;;;;;;;4.98;100.00;100640.56;5204871;27;20022;-72
2024/04/17 02:02:11;;;;;;;6.28;3.42;;;;;;;4.96;100.00;100632.03;5255559;27;20390;-71
2024/04/17 02:04:38;;;;;;;6.43;4.03;;;;;;;4.89;100.00;100631.34;5259845;27;20020;-73
2024/04/17 02:07:03;;;;;;;5.60;3.67;;;;;;;4.86;100.00;100639.78;5233280;27;20459;-72
2024/04/17 02:09:29;;;;;;;5.93;3.40;;;;;;;4.83;100.00;100648.22;5231669;27;20046;-72
2024/04/17 02:11:56;;;;;;;5.43;3.50;;;;;;;4.75;100.00;100643.28;5233828;27;20416;-71
2024/04/17 02:14:22;;;;;;;6.05;3.78;;;;;;;4.71;100.00;100648.22;5208946;27;20014;-72
2024/04/17 02:16:49;;;;;;;6.05;3.70;;;;;;;4.66;100.00;100651.56;5203620;27;20006;-73
2024/04/17 02:19:15;;;;;;;7.53;3.45;;;;;;;4.60;100.00;100644.53;5255104;27;20025;-72
2024/04/17 02:21:41;;;;;;;8.80;3.53;;;;;;;4.59;100.00;100658.03;5221878;27;20687;-71
2024/04/17 02:24:07;;;;;;;6.30;3.85;;;;;;;4.55;100.00;100643.63;5205843;27;20018;-73
2024/04/17 02:26:35;;;;;;;;;;;;;;;4.51;100.00;100650.44;5235863;27;20018;-72
2024/04/17 02:29:01;;;;;;;5.55;3.42;;;;;;;4.41;100.00;100640.41;5235706;27;20377;-75
2024/04/17 02:31:27;;;;;;;4.82;3.53;;;;;;;4.39;100.00;100650.44;5201529;27;20050;-71
2024/04/17 02:33:53;;;;;;;5.68;4.03;;;;;;;4.34;100.00;100642.38;5260116;27;20073;-74
2024/04/17 02:36:18;;;;;;;5.60;3.67;;;;;;;4.31;100.00;100645.47;5264665;26;20089;-73
2024/04/17 02:38:44;;;;;;;5.55;3.92;;;;;;;4.29;100.00;100647.56;5225885;27;20018;-72
2024/04/17 02:41:11;;;;;;;6.03;4.13;;;;;;;4.26;100.00;100638.19;5228169;27;20106;-73
2024/04/17 02:43:36;;;;;;;5.57;4.05;;;;;;;4.25;100.00;100643.75;5203909;27;21237;-73
2024/04/17 02:46:03;;;;;;;6.93;4.07;;;;;;;4.23;100.00;100643.16;5234010;27;20067;-72
2024/04/17 02:48:29;;;;;;;6.18;3.72;;;;;;;4.22;100.00;100652.16;5217728;27;19998;-74
2024/04/17 02:50:55;;;;;;;8.65;3.72;;;;;;;4.16;100.00;100645.13;5207206;27;20042;-71
2024/04/17 02:53:21;;;;;;;5.53;3.80;;;;;;;4.13;100.00;100648.22;5234113;27;20102;-72
2024/04/17 02:55:47;;;;;;;8.45;4.00;;;;;;;4.13;100.00;100649.03;5260736;27;20022;-73
2024/04/17 02:58:14;;;;;;;5.55;3.17;;;;;;;4.09;100.00;100653.19;5178979;27;20022;-72
2024/04/17 03:00:40;;;;;;;6.43;3.75;;;;;;;4.06;100.00;100649.16;5204178;27;20002;-74
2024/04/17 03:03:06;;;;;;;4.63;3.25;;;;;;;4.03;100.00;100649.59;5198359;27;20093;-75
2024/04/17 03:05:35;;;;;;;5.35;3.13;;;;;;;3.98;100.00;100662.72;5204031;27;20019;-72
2024/04/17 03:08:02;;;;;;;5.55;3.00;;;;;;;3.96;100.00;100656.84;5251114;27;20010;-74
2024/04/17 03:10:28;;;;;;;5.80;2.80;;;;;;;3.95;100.00;100657.09;5229780;27;20011;-72
2024/04/17 03:12:55;;;;;;;4.38;3.33;;;;;;;3.90;100.00;100655.09;5204096;27;20819;-73
2024/04/17 03:15:20;;;;;;;4.15;3.10;;;;;;;3.90;100.00;100660.41;5204335;27;20486;-72
2024/04/17 03:17:48;;;;;;;4.90;3.28;;;;;;;3.88;100.00;100656.38;5231608;27;20034;-73
2024/04/17 03:20:14;;;;;;;6.60;3.42;;;;;;;3.86;100.00;100661.88;5234121;27;20003;-73
2024/04/17 03:22:42;;;;;;;6.60;4.07;;;;;;;3.88;100.00;100661.69;5249397;27;20103;-73
2024/04/17 03:25:08;;;;;;;4.28;3.03;;;;;;;3.82;100.00;100663.38;5215912;27;20016;-72
2024/04/17 03:27:34;;;;;;;5.00;3.08;;;;;;;3.79;100.00;100658.53;5267484;27;20555;-73
2024/04/17 03:30:00;;;;;;;5.07;3.17;;;;;;;3.78;100.00;100655.06;5240645;27;20149;-72
2024/04/17 03:32:26;;;;;;;4.85;3.20;;;;;;;3.75;100.00;100663.50;5202609;27;20089;-74
2024/04/17 03:34:51;;;;;;;6.00;3.40;;;;;;;3.73;100.00;100664.75;5230050;27;20026;-71
2024/04/17 03:37:17;;;;;;;3.95;3.08;;;;;;;3.72;100.00;100663.91;5204400;27;20062;-72
2024/04/17 03:39:44;;;;;;;6.93;3.50;;;;;;;3.67;100.00;100661.16;5243739;27;20021;-72
2024/04/17 03:42:10;;;;;;;5.85;3.65;;;;;;;3.66;100.00;100664.00;5260863;27;20017;-72
2024/04/17 03:44:35;;;;;;;5.28;3.65;;;;;;;3.64;100.00;100672.19;5200707;27;20018;-73
2024/04/17 03:47:02;;;;;;;5.20;3.38;;;;;;;3.61;100.00;100666.56;5235686;27;20009;-72
2024/04/17 03:49:29;;;;;;;6.25;3.75;;;;;;;3.59;100.00;100668.59;5255376;27;20045;-72
2024/04/17 03:51:55;;;;;;;5.80;3.70;;;;;;;3.54;100.00;100664.81;5231072;27;20029;-71
2024/04/17 03:54:21;;;;;;;5.07;3.05;;;;;;;3.50;100.00;100674.22;5234609;27;20014;-74
2024/04/17 03:56:46;;;;;;;5.95;3.38;;;;;;;3.47;100.00;100672.03;5240318;27;20006;-73
2024/04/17 03:59:12;;;;;;;6.20;3.40;;;;;;;3.50;100.00;100673.41;5201798;27;20014;-72
2024/04/17 04:01:37;;;;;;;5.07;3.47;;;;;;;3.50;100.00;100676.06;5207435;27;20006;-72
2024/04/17 04:04:03;;;;;;;6.05;3.55;;;;;;;3.45;100.00;100674.06;5228638;27;20021;-73
2024/04/17 04:06:29;;;;;;;5.68;3.38;;;;;;;3.42;100.00;100685.13;5190731;27;20011;-73
2024/04/17 04:08:56;;;;;;;5.03;2.70;;;;;;;3.39;100.00;100682.94;5236419;27;20010;-72
2024/04/17 08:30:12;;;;;;;3.30;1.00;;;;;;;9.47;100.00;100790.78;458825;25;20345;-80
2024/04/17 08:32:41;;;;;;;3.95;1.10;;;;;;;9.38;100.00;100787.78;5215729;27;20017;-83
2024/04/17 08:35:13;;;;;;;1.52;0.80;;;;;;;9.38;95.34;100787.78;5261611;26;20052;-83
2024/04/17 08:37:43;;;;;;;2.47;0.70;;;;;;;9.52;89.46;100796.16;5259730;27;20008;-82
2024/04/17 08:40:12;;;;;;;2.95;1.10;;;;;;;9.56;85.29;100792.69;5240785;27;20007;-83
2024/04/17 08:42:41;;;;;;;1.80;0.80;;;;;;;9.67;81.72;100790.84;5228271;27;20007;-83
2024/04/17 08:45:09;;;;;;;3.63;0.68;;;;;;;9.82;86.09;100796.28;5482508;22;20008;-82
2024/04/17 08:47:40;;;;;;;2.80;1.20;;;;;;;9.82;86.14;100795.44;5206411;27;20051;-81
2024/04/17 08:50:10;;;;;;;2.47;0.82;;;;;;;9.97;90.32;100803.53;5235309;27;20011;-81
2024/04/17 08:52:42;;;;;;;3.38;0.75;;;;;;;9.91;74.63;100791.22;5210533;27;20004;-83
2024/04/17 08:55:10;;;;;;;2.95;0.80;;;;;;;9.96;74.22;100790.44;5349874;22;19996;-83
2024/04/17 08:57:38;;;;;;;5.63;1.50;;;;;;;9.97;73.53;100792.03;5291377;26;20101;-82
2024/04/17 09:00:06;;;;;;;1.45;0.88;;;;;;;10.04;76.04;100800.59;5214689;27;20034;-82
2024/04/17 09:02:33;;;;;;;2.67;0.80;;;;;;;10.04;72.12;100790.72;5265844;27;20012;-82
2024/04/17 09:05:02;;;;;;;2.35;0.80;;;;;;;10.01;72.85;100791.22;5272325;27;20007;-81
2024/04/17 09:07:37;;;;;;;1.98;1.35;;;;;;;10.18;74.73;100796.34;5278107;21;20014;-82
2024/04/17 09:10:04;;;;;;;2.60;0.90;;;;;;;10.20;75.57;100785.38;5255261;27;20014;-82
2024/04/17 09:12:31;;;;;;;3.13;0.70;;;;;;;10.31;72.43;100785.16;5224518;27;20231;-82
2024/04/17 09:14:57;;;;;;;;;;;;;;;10.42;71.93;100793.97;5258102;27;20028;-82
2024/04/17 09:17:23;;;;;;;2.17;0.70;;;;;;;10.34;66.00;100794.53;5191841;27;19981;-80
2024/04/17 09:19:49;;;;;;;2.53;0.90;;;;;;;10.38;69.39;100791.06;5199374;27;20000;-83
2024/04/17 09:22:15;;;;;;;3.33;0.80;;;;;;;10.44;67.57;100794.53;5209363;27;20013;-82
2024/04/17 09:24:41;;;;;;;2.63;0.80;;;;;;;10.52;68.08;100795.88;5140432;27;20783;-81
2024/04/17 09:27:14;;;;;;;1.50;0.80;;;;;;;10.59;65.34;100791.84;5221294;27;20001;-80
2024/04/17 09:29:45;;;;;;;2.33;0.60;;;;;;;10.63;64.29;100795.63;5172068;27;20008;-80
2024/04/17 09:32:15;;;;;;;3.17;0.70;;;;;;;10.73;64.81;100788.63;5224317;27;20619;-82
2024/04/17 09:34:42;;;;;;;2.83;0.70;;;;;;;10.84;65.41;100791.03;5197619;27;20092;-82
2024/04/17 09:37:10;;;;;;;2.97;0.90;;;;;;;10.93;68.38;100791.28;5195934;27;20019;-80
2024/04/17 09:39:37;;;;;;;2.03;0.68;;;;;;;11.03;67.89;100793.16;5171053;27;20069;-80
2024/04/17 09:42:07;;;;;;;2.05;0.80;;;;;;;11.03;65.37;100791.25;5192772;27;20018;-81
2024/04/17 09:44:39;;;;;;;2.65;0.80;;;;;;;10.88;58.81;100786.75;5148317;27;20019;-81
2024/04/17 09:47:10;;;;;;;1.90;0.80;;;;;;;10.93;59.28;100791.28;5176306;27;20024;-80
2024/04/17 09:49:45;;;;;;;3.35;0.95;;;;;;;10.98;59.35;100785.13;5200001;27;20016;-80
2024/04/17 09:52:18;;;;;;;2.15;1.00;;;;;;;11.01;60.05;100788.06;5160538;27;20018;-80
2024/04/17 09:54:45;;;;;;;2.00;0.88;;;;;;;11.18;56.80;100788.56;5144687;27;20009;-80
2024/04/17 09:57:11;;;;;;;1.88;0.70;;;;;;;11.24;59.91;100785.84;5179775;27;20005;-80
2024/04/17 09:59:37;;;;;;;;;;;;;;;11.43;58.77;100793.03;5175951;27;20597;-80
2024/04/17 10:02:04;;;;;;;2.58;0.95;;;;;;;11.36;58.95;100797.09;5184488;27;20454;-81
2024/04/17 10:04:30;;;;;;;2.85;1.00;;;;;;;11.34;61.00;100786.63;5160629;27;20005;-81
2024/04/17 10:06:57;;;;;;;2.10;1.10;;;;;;;11.45;62.08;100790.09;5182614;27;20029;-80
2024/04/17 10:09:25;;;;;;;2.45;1.10;;;;;;;11.58;62.94;100791.38;5171514;27;20112;-80
2024/04/17 10:11:52;;;;;;;3.25;1.95;;;;;;;11.71;61.43;100791.56;5193630;21;20613;-80
2024/04/17 10:14:19;;;;;;;6.80;1.85;;;;;;;11.69;56.71;100785.69;5246726;27;20046;-78
2024/04/17 10:16:45;;;;;;;2.55;1.00;;;;;;;11.76;55.37;100794.25;5226530;27;20046;-78
2024/04/17 10:19:13;;;;;;;3.38;1.00;;;;;;;11.76;54.05;100794.25;5263524;27;20018;-80
2024/04/17 10:21:41;;;;;;;3.58;1.38;;;;;;;11.73;52.94;100786.75;5221684;27;20003;-80
2024/04/17 10:24:11;;;;;;;4.25;1.42;;;;;;;11.72;57.34;100787.84;5266293;27;20014;-80
2024/04/17 10:26:42;;;;;;;2.60;1.30;;;;;;;11.95;58.33;100786.38;5260983;27;20014;-80
2024/04/17 10:29:25;;;;;;;2.65;1.25;;;;;;;12.18;57.85;100779.53;5225193;27;20006;-78
2024/04/17 10:32:02;;;;;;;2.58;0.98;;;;;;;12.33;56.78;100775.13;5260027;27;20093;-78
2024/04/17 10:34:45;;;;;;;4.03;1.42;;;;;;;12.37;58.14;100785.03;5268781;27;20046;-79
2024/04/17 10:37:12;;;;;;;2.50;1.35;;;;;;;12.47;55.01;100786.84;5254936;27;20056;-80
2024/04/17 10:39:40;;;;;;;1.77;1.15;;;;;;;12.55;55.62;100786.25;5246626;27;20017;-77
2024/04/17 10:42:06;;;;;;;3.25;1.20;;;;;;;12.57;54.09;100776.00;5259070;27;20024;-77
2024/04/17 10:44:44;;;;;;;3.33;1.35;;;;;;;12.47;52.99;100770.75;5234852;27;20078;-79
2024/04/17 10:47:20;;;;;;;1.58;1.05;;;;;;;12.80;58.80;100775.28;5252179;27;20030;-79
2024/04/17 10:49:53;;;;;;;2.42;1.30;;;;;;;13.05;59.19;100776.09;5270105;27;20045;-79
2024/04/17 10:52:20;;;;;;;5.95;1.42;;;;;;;13.08;54.39;100768.28;5236822;27;20050;-79
2024/04/17 10:54:45;;;;;;;2.30;1.25;;;;;;;13.16;56.25;100772.22;5264450;27;20352;-79
2024/04/17 10:57:12;;;;;;;3.50;1.17;;;;;;;13.30;55.58;100765.09;5270560;27;20384;-82
2024/04/17 10:59:43;;;;;;;;;;;;;;;13.30;54.15;100775.84;5266224;27;20013;-83
2024/04/17 11:02:08;;;;;;;4.10;1.00;;;;;;;13.31;54.50;100769.38;5243609;27;20373;-79
2024/04/17 11:04:36;;;;;;;3.78;1.00;;;;;;;13.42;51.94;100769.28;5259646;27;20244;-80
2024/04/17 11:07:02;;;;;;;2.55;0.93;;;;;;;13.49;51.70;100764.34;5216367;27;19998;-79
2024/04/17 11:09:27;;;;;;;;;;;;;;;13.57;51.21;100766.41;5237643;27;20811;-77
2024/04/17 11:11:53;;;;;;;2.60;0.73;;;;;;;13.69;54.71;100761.41;5215897;27;19955;-80
2024/04/17 11:14:20;;;;;;;;;;;;;;;13.82;52.18;100763.38;5275300;27;20018;-81
2024/04/17 11:16:45;;;;;;;2.22;1.00;;;;;;;13.85;54.89;100762.78;5231440;27;19998;-81
2024/04/17 11:19:11;;;;;;;;;;;;;;;13.99;60.50;100762.06;5237289;27;20316;-82
2024/04/17 11:21:37;;;;;;;2.03;0.70;;;;;;;14.12;54.93;100758.63;5265876;27;19950;-80
2024/04/17 11:24:03;;;;;;;;;;;;;;;14.28;56.29;100756.47;5214683;27;20002;-80
2024/04/17 11:26:31;;;;;;;4.70;1.08;;;;;;;14.36;53.97;100756.63;5270171;27;19998;-78
2024/04/17 11:28:57;;;;;;;2.17;0.70;;;;;;;14.29;52.48;100764.25;5252141;27;20017;-79
2024/04/17 11:31:23;;;;;;;2.75;1.25;;;;;;;14.28;51.73;100762.66;5264943;27;20017;-79
2024/04/17 11:33:49;;;;;;;2.38;0.80;;;;;;;14.35;52.06;100765.00;5268618;27;20018;-81
2024/04/17 11:36:14;;;;;;;;;;;;;;;14.06;54.05;100774.06;5265475;27;20010;-78
2024/04/17 11:38:44;;;;;;;3.22;1.10;;;;;;;13.70;54.57;100776.44;5241999;27;20746;-80
2024/04/17 11:41:11;;;;;;;3.45;0.82;;;;;;;13.41;52.36;100767.66;5239325;27;20021;-80
2024/04/17 11:43:36;;;;;;;3.25;0.90;;;;;;;13.60;56.91;100768.50;5210248;27;20480;-81
2024/04/17 11:46:02;;;;;;;;;;;;;;;13.87;54.64;100767.88;5267920;27;20002;-79
2024/04/17 11:48:28;;;;;;;3.88;1.55;;;;;;;14.03;54.52;100769.25;5252252;27;19927;-80
2024/04/17 11:50:54;;;;;;;4.68;1.00;;;;;;;14.27;52.00;100763.78;5287660;27;20038;-80
2024/04/17 11:53:19;;;;;;;;;;;;;;;13.93;51.93;100774.78;5244084;27;20479;-82
2024/04/17 11:55:45;;;;;;;2.72;0.70;;;;;;;13.62;53.81;100772.50;5254740;27;19926;-86
2024/04/17 11:58:12;;;;;;;;;;;;;;;13.53;52.43;100770.75;5249364;27;20006;-86
2024/04/17 12:00:41;;;;;;;3.65;0.60;;;;;;;13.41;52.75;100767.66;5285678;27;19927;-83
2024/04/17 12:03:07;;;;;;;2.17;0.70;;;;;;;13.41;51.36;100767.66;5240107;27;20113;-81
2024/04/17 12:05:32;;;;;;;;;;;;;;;13.34;53.15;100776.91;5255162;27;20508;-82
2024/04/17 12:07:59;;;;;;;2.20;0.65;;;;;;;13.13;52.79;100772.78;5265215;27;19926;-82
2024/04/17 12:10:24;;;;;;;2.33;0.80;;;;;;;13.01;49.61;100769.72;5273077;27;20472;-80
2024/04/17 12:12:50;;;;;;;;;;;;;;;12.92;54.73;100776.78;5235809;27;20014;-81
2024/04/17 12:15:15;;;;;;;1.75;0.65;;;;;;;12.83;55.69;100772.00;5270900;27;19927;-82
2024/04/17 12:17:41;;;;;;;;;;;;;;;12.84;55.09;100781.69;5263819;27;20018;-81
2024/04/17 12:20:07;;;;;;;3.28;0.70;;;;;;;12.66;52.22;100778.88;5245700;27;19934;-80
2024/04/17 12:22:33;;;;;;;3.92;1.92;;;;;;;12.38;58.84;100793.91;5269681;27;20006;-79
2024/04/17 12:27:45;;;;;;;1.67;0.77;;;;;;;12.13;72.07;100792.22;5266689;27;20011;-79
2024/04/17 12:30:10;;;;;;;4.45;1.10;;;;;;;12.00;85.09;100801.69;5235887;27;20460;-80
2024/04/17 12:32:36;;;;;;;2.53;1.00;;;;;;;11.88;91.48;100795.84;5266644;27;20017;-78
2024/04/17 12:35:02;;;;;;;5.13;1.10;;;;;;;11.74;100.00;100793.72;5239226;27;20052;-81
2024/04/17 12:37:28;;;;;;;;;;;;;;;11.68;97.17;100800.19;5264264;27;20038;-79
2024/04/17 12:39:54;;;;;;;2.03;0.90;;;;;;;11.61;100.00;100799.69;5254258;27;19926;-79
2024/04/17 12:42:22;;;;;;;5.28;1.23;;;;;;;11.61;100.00;100797.00;5245073;27;20024;-81
2024/04/17 12:44:48;;;;;;;2.63;1.20;;;;;;;11.65;100.00;100805.28;5230993;27;20018;-80
2024/04/17 12:47:14;;;;;;;3.03;1.13;;;;;;;11.72;100.00;100801.25;5221927;27;20028;-84
2024/04/17 12:49:40;;;;;;;6.10;1.02;;;;;;;11.83;100.00;100806.59;5275494;27;20003;-81
2024/04/17 12:52:06;;;;;;;3.03;1.00;;;;;;;11.99;95.10;100806.25;5282967;27;20039;-81
2024/04/17 12:54:31;;;;;;;;;;;;;;;11.86;100.00;100800.69;5244586;27;20813;-81
2024/04/17 12:56:57;;;;;;;3.13;1.00;;;;;;;11.82;99.01;100807.66;5216025;27;19938;-79
2024/04/17 12:59:22;;;;;;;;;;;;;;;11.79;100.00;100809.00;5248125;27;20014;-80
2024/04/17 13:01:48;;;;;;;3.78;1.02;;;;;;;11.79;100.00;100809.00;5239203;27;20506;-82
2024/04/17 13:04:14;;;;;;;2.75;1.02;;;;;;;12.01;97.67;100814.00;5244006;27;20011;-82
2024/04/17 13:06:40;;;;;;;4.05;1.20;;;;;;;12.46;100.00;100812.09;5242461;27;20033;-82
2024/04/17 13:09:06;;;;;;;2.90;0.90;;;;;;;12.74;94.79;100807.84;5280841;27;20013;-81
2024/04/17 13:11:31;;;;;;;4.00;1.45;;;;;;;12.90;88.34;100800.44;5249182;27;20022;-79
2024/04/17 13:13:57;;;;;;;2.47;0.82;;;;;;;13.13;85.99;100796.97;5252947;27;20011;-83
2024/04/17 13:16:23;;;;;;;;;;;;;;;13.29;77.11;100798.47;5276970;27;20018;-83
2024/04/17 13:18:50;;;;;;;2.45;0.88;;;;;;;13.27;74.57;100797.94;5276501;27;19927;-82
2024/04/17 13:21:16;;;;;;;7.40;2.00;;;;;;;13.21;78.27;100793.72;5260127;27;20014;-83
2024/04/17 13:23:42;;;;;;;2.22;1.30;;;;;;;13.43;78.82;100792.41;5216564;27;20022;-80
2024/04/17 13:26:07;;;;;;;;;;;;;;;13.52;72.39;100806.81;5249622;27;20018;-80
2024/04/17 13:28:34;;;;;;;2.20;1.15;;;;;;;13.49;68.92;100794.75;5204928;27;19928;-80
2024/04/17 13:31:02;;;;;;;2.55;1.00;;;;;;;13.63;67.22;100784.06;5267316;27;20424;-79
2024/04/17 13:33:29;;;;;;;2.75;1.30;;;;;;;13.71;67.79;100782.63;5237746;27;20010;-79
2024/04/17 13:35:57;;;;;;;2.75;0.90;;;;;;;13.85;71.65;100788.91;5272081;27;20003;-80
2024/04/17 13:38:23;;;;;;;3.67;0.95;;;;;;;14.03;70.91;100784.63;5241883;27;20119;-80
2024/04/17 13:41:05;;;;;;;2.67;0.98;;;;;;;14.17;68.35;100793.56;5240493;27;20017;-81
2024/04/17 13:43:32;;;;;;;2.20;0.98;;;;;;;14.51;70.47;100797.94;5219356;27;20010;-81
2024/04/17 13:46:04;;;;;;;2.28;0.90;;;;;;;14.63;68.98;100795.56;5243693;27;20002;-87
2024/04/17 13:48:30;;;;;;;3.60;0.90;;;;;;;14.51;67.37;100790.66;5266657;27;20081;-81
2024/04/17 13:51:02;;;;;;;1.45;0.82;;;;;;;14.55;62.89;100797.03;5284632;27;20038;-82
2024/04/17 13:53:29;;;;;;;3.05;1.15;;;;;;;14.62;63.06;100785.88;5277278;27;20376;-80
2024/04/17 13:55:56;;;;;;;2.78;1.10;;;;;;;14.84;66.12;100796.81;5232334;27;20063;-80
2024/04/17 13:58:21;;;;;;;2.20;0.70;;;;;;;14.90;63.82;100792.13;5275312;27;20017;-82
2024/04/17 14:00:47;;;;;;;;;;;;;;;14.59;62.71;100789.16;5287006;27;20003;-79
2024/04/17 14:03:12;;;;;;;4.78;0.85;;;;;;;14.53;64.25;100783.06;5246372;27;19938;-87
2024/04/17 14:05:38;;;;;;;1.75;0.60;;;;;;;14.37;63.43;100781.69;5264968;26;20047;-88
2024/04/17 14:08:07;;;;;;;;;;;;;;;14.10;59.69;100785.06;5264596;27;20018;-87
2024/04/17 14:10:34;;;;;;;2.63;0.80;;;;;;;13.86;62.06;100787.81;5243025;26;19927;-87
2024/04/17 14:15:57;;;;;;;2.75;0.77;;;;;;;13.80;57.85;100780.88;5244473;21;20015;-79
2024/04/17 14:18:24;;;;;;;2.80;0.93;;;;;;;13.75;60.71;100779.09;5156969;27;20016;-82
2024/04/17 14:20:53;;;;;;;1.52;0.80;;;;;;;13.91;62.14;100783.16;5170325;27;20013;-81
2024/04/17 14:23:20;;;;;;;4.18;1.00;;;;;;;14.03;62.68;100785.41;5214807;27;20424;-80
2024/04/17 14:25:56;;;;;;;2.97;1.02;;;;;;;14.00;61.35;100785.19;5175987;27;20020;-80
2024/04/17 14:28:23;;;;;;;2.47;0.57;;;;;;;14.07;62.61;100788.31;5201773;27;20056;-80
2024/04/17 14:31:00;;;;;;;3.38;1.00;;;;;;;14.00;63.81;100790.56;5185613;27;20493;-84
2024/04/17 14:33:36;;;;;;;2.42;0.75;;;;;;;14.05;61.84;100790.50;5200769;27;20012;-82
2024/04/17 14:36:07;;;;;;;2.33;0.70;;;;;;;14.12;62.94;100782.88;5185953;27;20025;-86
2024/04/17 14:38:38;;;;;;;3.38;0.80;;;;;;;13.91;59.27;100788.53;5240792;27;20008;-81
2024/04/17 14:41:04;;;;;;;3.00;1.00;;;;;;;13.79;56.33;100790.84;5243033;27;20011;-84
2024/04/17 14:43:31;;;;;;;1.90;0.80;;;;;;;13.61;57.43;100795.09;5232996;27;20019;-85
2024/04/17 14:46:03;;;;;;;3.92;0.88;;;;;;;13.70;57.08;100806.06;5237612;27;20020;-83
2024/04/17 14:48:31;;;;;;;1.90;0.65;;;;;;;13.71;56.33;100804.16;5261607;27;20469;-83
2024/04/17 14:51:00;;;;;;;1.73;0.65;;;;;;;13.41;59.99;100811.50;5253087;27;20018;-81
2024/04/17 14:53:26;;;;;;;1.92;0.93;;;;;;;13.18;61.58;100810.38;5247960;27;20025;-80
2024/04/17 14:55:59;;;;;;;1.67;0.70;;;;;;;12.84;60.42;100818.50;5246832;27;20364;-83
2024/04/17 14:58:25;;;;;;;1.88;0.60;;;;;;;12.40;61.99;100818.59;5241822;27;20031;-84
2024/04/17 15:00:51;;;;;;;1.60;0.55;;;;;;;12.16;64.45;100824.66;5218939;27;20357;-83
2024/04/17 15:03:17;;;;;;;1.95;0.80;;;;;;;11.86;64.61;100825.63;5242732;27;20007;-83
2024/04/17 15:05:44;;;;;;;2.22;0.82;;;;;;;11.66;66.38;100821.13;5208161;27;20023;-85
2024/04/17 15:08:10;;;;;;;2.53;0.90;;;;;;;11.37;69.79;100820.94;5201342;27;20023;-83
2024/04/17 15:10:36;;;;;;;4.25;1.20;;;;;;;11.18;71.95;100810.00;5227105;27;20016;-81
2024/04/17 15:13:02;;;;;;;1.58;0.77;;;;;;;10.96;73.66;100822.91;5251789;27;20896;-80
2024/04/17 15:15:28;;;;;;;;;;;;;;;10.63;79.52;100825.06;5235395;27;20023;-82
2024/04/17 15:17:53;;;;;;;2.72;1.02;;;;;;;10.55;83.26;100822.09;5206706;27;20355;-86
2024/04/17 15:20:20;;;;;;;;;;;;;;;10.44;83.60;100823.19;5229993;27;20043;-83
2024/04/17 15:22:46;;;;;;;1.73;0.88;;;;;;;10.29;89.12;100818.59;5245243;27;19926;-82
2024/04/17 15:25:11;;;;;;;5.30;1.13;;;;;;;10.17;94.90;100828.75;5174024;27;20026;-81
2024/04/17 15:27:38;;;;;;;2.63;1.30;;;;;;;10.07;96.91;100822.28;5241665;27;20480;-81
2024/04/17 15:30:04;;;;;;;;;;;;;;;10.05;100.00;100827.09;5220992;27;20011;-83
2024/04/17 15:32:32;;;;;;;1.52;0.93;;;;;;;9.79;100.00;100828.88;5241722;27;19928;-82
2024/04/17 15:35:00;;;;;;;2.75;1.08;;;;;;;9.75;100.00;100827.78;5205939;27;20023;-77
2024/04/17 15:37:27;;;;;;;2.75;0.70;;;;;;;9.72;100.00;100830.19;5229602;27;20022;-81
2024/04/17 15:39:53;;;;;;;3.10;1.08;;;;;;;9.65;100.00;100825.09;5237688;27;20569;-81
2024/04/17 15:42:18;;;;;;;3.22;0.90;;;;;;;9.58;100.00;100825.31;5232113;27;20103;-78
2024/04/17 15:44:45;;;;;;;2.50;1.30;;;;;;;9.48;100.00;100833.31;5227034;27;20007;-79
2024/04/17 15:47:12;;;;;;;3.67;0.95;;;;;;;9.54;100.00;100834.91;5272082;27;20002;-79
2024/04/17 15:49:43;;;;;;;2.30;1.10;;;;;;;9.60;100.00;100837.63;5237547;27;20070;-82
2024/04/17 15:52:09;;;;;;;1.73;0.98;;;;;;;9.53;100.00;100841.31;5236886;27;20085;-79
2024/04/17 15:54:35;;;;;;;3.15;1.27;;;;;;;9.33;100.00;100848.44;5238157;27;20039;-80